Strona główna
METAR-TAF:

METAR-TAF

Lotnisko :

Tak, Tajlandia

Szerokość geograficzna: 16-53N, Długość geograficzna: 099-09E, wysokość: 121 m

METAR: brakujący

czas: 08:48 (01:48 UTC)

Prognoza

Raport powstał 2 godziny i 48 minut temu, godzina 23:00 UTC
Prognoza ważna od 26 godzina 00 UTC do 26 godzina 24 UTC
Wiatr 8 kt od zachód
Widzialność: 7000 m
Rozproszone chmury na wysokości 3000 ft
Przejściowo
od 26 godzina 02 UTC do 26 godzina 06 UTC
Wiatr 15 kt z kierunków zmiennych w porywach dochodzący do 25 kt
Widzialność: 5000 m
Mało chmury na wysokości 2500 ft, Cumulonimbus.
Przerywane chmury na wysokości 3000 ft
burza, deszcz

TAF: VTPT 252300Z 2600/2624 26008KT 7000 SCT030 TEMPO 2602/2606 VRB15G25KT 5000 TSRA FEW025CB BKN030

Obserwacja i prognoza pogody dla ponad 4000 lotnisk (raport METAR i TAF).

Dostępne stacje oznaczono żółtymi i czerwonymi punktami na mapie.

Najedź kursorem aby zobaczyć nazwę stacji.

Kliknij aby zobaczyć obserwacje i prognozy pogody.

Aby zmienić mapę: kliknij na zielony przycisk z czarnym krzyżykiem, aby powiększyć; na zielony przycisk z myślnikiem, aby pomniejszyć; na zielone strzałki, aby przejść do map sąsiednich.


METAR-TAF: